Tarifa en Andalucia

latitud = 36° 01' 08''N | longitud = 005° 35' 58''W
56 metros sobre el nivel del mar | datos mensuales

Fecha, hora, temperatura, viento dirección y velocidad, humedad y presión.

  • 22-11-2017 09:00:00 | 17.70°C | 0 |0.00 km/h | 94.00% | 0.00 hPa
  • 22-11-2017 08:00:00 | 17.00°C | 0 |0.00 km/h | 94.00% | 0.00 hPa
  • 22-11-2017 07:00:00 | 17.40°C | 0 |0.00 km/h | 94.00% | 0.00 hPa
  • 22-11-2017 06:00:00 | 17.20°C | 0 |0.00 km/h | 94.00% | 0.00 hPa
  • 22-11-2017 05:00:00 | 17.50°C | 0 |0.00 km/h | 94.00% | 0.00 hPa
  • 22-11-2017 04:00:00 | 17.50°C | 0 |0.00 km/h | 94.00% | 0.00 hPa
  • 22-11-2017 03:00:00 | 17.30°C | 0 |0.00 km/h | 95.00% | 0.00 hPa
  • 22-11-2017 02:00:00 | 17.20°C | 0 |0.00 km/h | 95.00% | 0.00 hPa
  • 22-11-2017 01:00:00 | 17.30°C | 0 |0.00 km/h | 95.00% | 0.00 hPa
  • 22-11-2017 00:00:00 | 17.30°C | 0 |0.00 km/h | 97.00% | 0.00 hPa
  • 21-11-2017 23:00:00 | 17.30°C | 0 |0.00 km/h | 97.00% | 0.00 hPa
  • 21-11-2017 22:00:00 | 16.30°C | 0 |0.00 km/h | 98.00% | 0.00 hPa
  • 21-11-2017 21:00:00 | 17.20°C | 0 |0.00 km/h | 97.00% | 0.00 hPa
  • 21-11-2017 20:00:00 | 17.40°C | 0 |0.00 km/h | 97.00% | 0.00 hPa
  • 21-11-2017 19:00:00 | 17.40°C | 0 |0.00 km/h | 95.00% | 0.00 hPa
  • 21-11-2017 18:00:00 | 18.40°C | 0 |0.00 km/h | 94.00% | 0.00 hPa
  • 21-11-2017 17:00:00 | 19.30°C | 0 |0.00 km/h | 89.00% | 0.00 hPa
  • 21-11-2017 16:00:00 | 19.80°C | 0 |0.00 km/h | 84.00% | 0.00 hPa
  • 21-11-2017 15:00:00 | 19.10°C | 0 |0.00 km/h | 84.00% | 0.00 hPa
  • 21-11-2017 14:00:00 | 19.30°C | 0 |0.00 km/h | 82.00% | 0.00 hPa
  • 21-11-2017 13:00:00 | 19.30°C | 0 |0.00 km/h | 84.00% | 0.00 hPa
  • 21-11-2017 12:00:00 | 18.90°C | 0 |0.00 km/h | 81.00% | 0.00 hPa
  • 21-11-2017 11:00:00 | 18.80°C | 0 |0.00 km/h | 82.00% | 0.00 hPa
  • 21-11-2017 10:00:00 | 18.10°C | 0 |0.00 km/h | 86.00% | 0.00 hPa